Mound City, Missouri
Current Conditions -  °F | °C
As of 5:53 AM on Wednesday 26 Nov 2014 (Local Time) from KFNB Reporting Station
Broken Clouds Broken Clouds  
Wind Chill: 28°   Ceiling: 7500
Heat Index: 37°   Visibility: 10mi
Dew Point: 31°   Wind: 14mph
Humidity: 79%   Direction: 280°W
Pressure: 29.9"   Gusts: NA
Location:  40.13°N, 95.23°W
Report Text: KFNB 261153Z AUTO 28012KT 10SM BKN075 03/M01 A2990 RMK AO2 SLP131 60000 T00281006 10044 20022 53007
Loading
Personal Weather Stations






























Interactive Weather Map New forecast layout! Learn more

10-Day Weather Forecast

Advertisements
Track Severe Weather on mobile